createdAt,value
2019-03-20T00:01:07.956Z,37.87
2019-03-20T00:03:37.608Z,35.83
2019-03-20T00:06:07.151Z,36.50
2019-03-20T00:08:37.624Z,33.00
2019-03-20T00:11:07.184Z,31.17
2019-03-20T00:13:36.757Z,29.43
2019-03-20T00:16:06.314Z,29.10
2019-03-20T00:18:35.873Z,28.60
2019-03-20T00:21:05.468Z,26.90
2019-03-20T00:23:35.025Z,25.60
2019-03-20T00:26:04.959Z,26.53
2019-03-20T00:28:34.502Z,26.17
2019-03-20T00:31:04.068Z,25.70
2019-03-20T00:33:33.646Z,25.13
2019-03-20T00:36:03.184Z,25.90
2019-03-20T00:38:33.941Z,26.17
2019-03-20T00:41:03.505Z,27.63
2019-03-20T00:43:33.065Z,26.93
2019-03-20T00:46:02.650Z,25.57
2019-03-20T00:48:33.193Z,25.60
2019-03-20T00:51:02.775Z,24.43
2019-03-20T00:53:32.327Z,23.40
2019-03-20T00:56:01.887Z,23.63
2019-03-20T00:58:31.909Z,20.70
2019-03-20T01:01:01.456Z,21.97
2019-03-20T01:03:31.026Z,23.30
2019-03-20T01:06:00.880Z,23.83
2019-03-20T01:08:30.457Z,21.40
2019-03-20T01:11:00.408Z,21.60
2019-03-20T01:13:29.959Z,20.37
2019-03-20T01:15:59.528Z,18.97
2019-03-20T01:18:29.071Z,18.07
2019-03-20T01:20:58.635Z,14.70
2019-03-20T01:23:29.022Z,13.53
2019-03-20T01:25:58.575Z,12.47
2019-03-20T01:28:28.130Z,12.93
2019-03-20T01:31:10.347Z,13.03
2019-03-20T01:33:39.908Z,12.70
2019-03-20T01:36:09.511Z,13.10
2019-03-20T01:38:39.075Z,12.23
2019-03-20T01:41:08.637Z,11.13
2019-03-20T01:43:38.178Z,9.47
2019-03-20T01:46:07.736Z,10.63
2019-03-20T01:48:37.322Z,12.57
2019-03-20T01:51:18.334Z,11.87
2019-03-20T01:53:48.013Z,15.13
2019-03-20T01:56:17.573Z,16.77
2019-03-20T01:58:48.214Z,13.37
2019-03-20T02:01:17.770Z,14.77
2019-03-20T02:03:47.315Z,17.37
2019-03-20T02:06:16.899Z,17.10
2019-03-20T02:08:46.438Z,19.20
2019-03-20T02:11:16.005Z,25.87
2019-03-20T02:13:45.580Z,25.33
2019-03-20T02:16:15.143Z,25.30
2019-03-20T02:18:44.929Z,22.27
2019-03-20T02:21:14.758Z,22.83
2019-03-20T02:23:44.319Z,24.53
2019-03-20T02:26:14.236Z,27.57
2019-03-20T02:28:43.772Z,29.73
2019-03-20T02:31:13.360Z,30.10
2019-03-20T02:33:42.934Z,30.80
2019-03-20T02:36:12.520Z,32.13
2019-03-20T02:38:42.074Z,31.50
2019-03-20T02:44:05.785Z,30.40
2019-03-20T02:46:35.321Z,30.47
2019-03-20T02:49:04.889Z,30.67
2019-03-20T02:51:34.553Z,30.53
2019-03-20T02:54:04.122Z,29.40
2019-03-20T02:56:34.611Z,26.87
2019-03-20T02:59:04.155Z,24.47
2019-03-20T03:01:33.709Z,24.63
2019-03-20T03:04:03.296Z,24.80
2019-03-20T03:06:32.828Z,22.63
2019-03-20T03:09:02.436Z,22.07
2019-03-20T03:11:32.090Z,20.13
2019-03-20T03:14:01.648Z,20.30
2019-03-20T03:16:31.564Z,21.63
2019-03-20T03:19:01.111Z,19.87
2019-03-20T03:21:30.694Z,20.43
2019-03-20T03:24:00.235Z,20.63
2019-03-20T03:26:29.820Z,23.33
2019-03-20T03:28:59.339Z,22.53
2019-03-20T03:31:28.987Z,20.67
2019-03-20T03:33:58.575Z,20.27
2019-03-20T03:36:28.113Z,25.20
2019-03-20T03:38:57.672Z,25.67
2019-03-20T03:41:27.279Z,24.97
2019-03-20T03:43:56.834Z,26.27
2019-03-20T03:46:26.422Z,23.13
2019-03-20T03:48:55.964Z,25.33
2019-03-20T03:51:25.519Z,21.90
2019-03-20T03:53:55.090Z,23.00
2019-03-20T03:56:24.636Z,22.60
2019-03-20T03:58:55.270Z,23.00
2019-03-20T04:01:24.821Z,24.13
2019-03-20T04:03:54.360Z,23.43
2019-03-20T04:06:34.930Z,24.27
2019-03-20T04:08:55.092Z,25.33
2019-03-20T04:11:24.666Z,26.23
2019-03-20T04:13:55.615Z,27.33
2019-03-20T04:16:25.206Z,29.63
2019-03-20T04:18:54.743Z,25.97
2019-03-20T04:21:24.307Z,23.27
2019-03-20T04:23:54.221Z,22.33
2019-03-20T04:26:23.798Z,22.70
2019-03-20T04:28:53.359Z,26.07
2019-03-20T04:31:22.917Z,24.97
2019-03-20T04:33:52.465Z,24.57
2019-03-20T04:36:22.027Z,24.47
2019-03-20T04:38:51.586Z,21.87
2019-03-20T04:41:21.160Z,24.43
2019-03-20T04:43:51.079Z,23.67
2019-03-20T04:46:20.847Z,22.27
2019-03-20T04:48:50.390Z,24.60
2019-03-20T04:51:19.960Z,25.73
2019-03-20T04:53:49.524Z,29.13
2019-03-20T04:56:19.082Z,29.57
2019-03-20T04:58:49.980Z,32.60
2019-03-20T05:01:20.656Z,30.97
2019-03-20T05:03:50.370Z,28.13
2019-03-20T05:06:19.939Z,27.40
2019-03-20T05:08:49.475Z,28.23
2019-03-20T05:11:19.038Z,28.60
2019-03-20T05:13:48.587Z,30.03
2019-03-20T05:16:18.391Z,27.50
2019-03-20T05:18:48.271Z,30.17
2019-03-20T05:21:17.814Z,29.37
2019-03-20T05:23:47.396Z,29.30
2019-03-20T05:26:16.931Z,33.00
2019-03-20T05:28:46.509Z,30.67
2019-03-20T05:31:16.344Z,33.17
2019-03-20T05:33:45.908Z,41.47
2019-03-20T05:36:15.797Z,41.13
2019-03-20T05:38:45.361Z,48.17
2019-03-20T05:41:14.927Z,60.97
2019-03-20T05:43:44.478Z,64.07
2019-03-20T05:46:14.023Z,70.53
2019-03-20T05:48:43.930Z,66.67
2019-03-20T05:51:13.485Z,76.17
2019-03-20T05:53:43.946Z,80.27
2019-03-20T05:56:13.486Z,56.50
2019-03-20T05:58:43.392Z,41.30
2019-03-20T06:01:12.937Z,59.63
2019-03-20T06:03:42.577Z,71.90
2019-03-20T06:06:12.180Z,84.50
2019-03-20T06:08:41.737Z,90.43
2019-03-20T06:11:11.286Z,89.80
2019-03-20T06:13:41.149Z,85.63
2019-03-20T06:16:10.695Z,79.97
2019-03-20T06:18:40.574Z,81.87
2019-03-20T06:21:10.101Z,78.23
2019-03-20T06:23:39.642Z,75.07
2019-03-20T06:26:09.611Z,75.67
2019-03-20T06:28:39.250Z,76.47
2019-03-20T06:31:08.808Z,79.00
2019-03-20T06:33:38.377Z,80.67
2019-03-20T06:36:07.947Z,80.27
2019-03-20T06:38:37.478Z,83.27
2019-03-20T06:41:19.274Z,81.50
2019-03-20T06:43:48.819Z,82.00
2019-03-20T06:46:18.381Z,83.77
2019-03-20T06:48:47.938Z,83.23
2019-03-20T06:51:17.485Z,78.77
2019-03-20T06:53:47.016Z,82.17
2019-03-20T06:56:16.689Z,82.90
2019-03-20T06:58:46.259Z,80.43
2019-03-20T07:01:18.931Z,79.37
2019-03-20T07:04:07.198Z,81.07
2019-03-20T07:06:39.833Z,76.87
2019-03-20T07:09:18.596Z,67.17
2019-03-20T07:11:48.143Z,67.10
2019-03-20T07:14:17.695Z,64.93
2019-03-20T07:16:47.266Z,61.70
2019-03-20T07:19:16.816Z,57.17
2019-03-20T07:21:46.419Z,49.40
2019-03-20T07:24:35.336Z,45.87
2019-03-20T07:27:04.930Z,45.30
2019-03-20T07:29:34.466Z,42.80
2019-03-20T07:32:04.025Z,38.80
2019-03-20T07:34:33.581Z,46.93
2019-03-20T07:37:04.392Z,54.43
2019-03-20T07:39:33.992Z,56.17
2019-03-20T07:42:03.553Z,55.77
2019-03-20T07:44:33.105Z,60.33
2019-03-20T07:47:02.654Z,61.77
2019-03-20T07:49:32.217Z,59.70
2019-03-20T07:52:01.755Z,59.03
2019-03-20T07:54:31.409Z,56.63
2019-03-20T07:57:01.029Z,61.97
2019-03-20T07:59:30.557Z,57.83
2019-03-20T08:02:00.218Z,53.20
2019-03-20T08:04:30.120Z,55.73
2019-03-20T08:06:59.655Z,52.70
2019-03-20T08:09:29.263Z,53.13
2019-03-20T08:11:58.870Z,49.60
2019-03-20T08:14:28.483Z,50.40
2019-03-20T08:16:58.004Z,47.03
2019-03-20T08:19:27.563Z,44.17
2019-03-20T08:21:57.699Z,44.83
2019-03-20T08:24:27.231Z,48.07
2019-03-20T08:26:56.792Z,38.93
2019-03-20T08:29:26.339Z,45.37
2019-03-20T08:31:55.980Z,36.47
2019-03-20T08:34:25.543Z,39.37
2019-03-20T08:36:55.076Z,37.30
2019-03-20T08:39:24.673Z,19.50
2019-03-20T08:41:54.206Z,32.27
2019-03-20T08:44:23.746Z,38.07
2019-03-20T08:46:53.278Z,42.83
2019-03-20T08:49:22.814Z,39.03
2019-03-20T08:51:52.400Z,42.73
2019-03-20T08:54:22.047Z,39.57
2019-03-20T08:56:51.586Z,35.80
2019-03-20T08:59:21.356Z,35.13
2019-03-20T09:01:50.895Z,27.63
2019-03-20T09:04:20.818Z,25.77
2019-03-20T09:06:50.454Z,25.57
2019-03-20T09:09:20.073Z,19.83
2019-03-20T09:11:50.010Z,20.77
2019-03-20T09:14:19.584Z,24.37
2019-03-20T09:16:49.167Z,25.20
2019-03-20T09:19:18.723Z,29.23
2019-03-20T09:21:48.285Z,26.70
2019-03-20T09:24:18.830Z,27.00
2019-03-20T09:26:48.374Z,25.27
2019-03-20T09:29:19.018Z,27.00
2019-03-20T09:31:48.626Z,27.57
2019-03-20T09:34:18.164Z,28.70
2019-03-20T09:36:47.714Z,30.93
2019-03-20T09:39:17.263Z,31.37
2019-03-20T09:41:46.849Z,29.80
2019-03-20T09:44:16.395Z,28.77
2019-03-20T09:46:46.019Z,25.93
2019-03-20T09:49:15.544Z,27.60
2019-03-20T09:51:45.092Z,30.33
2019-03-20T09:54:14.644Z,31.60
2019-03-20T09:56:44.178Z,31.20
2019-03-20T09:59:13.760Z,32.67
2019-03-20T10:01:43.286Z,33.17
2019-03-20T10:04:12.823Z,30.67
2019-03-20T10:06:42.367Z,33.23
2019-03-20T10:09:11.924Z,31.93
2019-03-20T10:11:41.544Z,24.30
2019-03-20T10:14:11.078Z,22.87
2019-03-20T10:16:40.617Z,24.30
2019-03-20T10:19:10.102Z,24.43
2019-03-20T10:21:40.773Z,24.60
2019-03-20T10:24:12.164Z,24.10
2019-03-20T10:26:41.701Z,20.93
2019-03-20T10:29:11.359Z,16.63
2019-03-20T10:31:40.925Z,19.67
2019-03-20T10:34:10.481Z,19.47
2019-03-20T10:36:40.847Z,20.47
2019-03-20T10:39:11.811Z,20.10
2019-03-20T10:41:41.592Z,20.20
2019-03-20T10:44:11.301Z,22.63
2019-03-20T10:46:40.855Z,17.80
2019-03-20T10:49:10.438Z,18.20
2019-03-20T10:51:39.978Z,17.23
2019-03-20T10:54:09.646Z,15.70
2019-03-20T10:56:39.544Z,17.17
2019-03-20T10:59:09.094Z,17.77
2019-03-20T11:01:42.803Z,19.77
2019-03-20T11:04:10.870Z,19.80
2019-03-20T11:06:40.427Z,20.63
2019-03-20T11:09:18.325Z,20.00
2019-03-20T11:11:41.131Z,19.67
2019-03-20T11:14:10.734Z,21.90
2019-03-20T11:16:40.288Z,19.67
2019-03-20T11:19:09.825Z,19.50
2019-03-20T11:21:39.375Z,18.10
2019-03-20T11:24:08.921Z,17.40
2019-03-20T11:26:38.480Z,17.23
2019-03-20T11:29:08.023Z,65.20
2019-03-20T11:31:37.573Z,27.17
2019-03-20T11:34:07.133Z,16.60
2019-03-20T11:36:36.682Z,15.70
2019-03-20T11:39:08.786Z,16.23
2019-03-20T11:41:38.334Z,17.87
2019-03-20T11:44:07.880Z,45.57
2019-03-20T11:46:37.437Z,38.37
2019-03-20T11:49:06.989Z,31.43
2019-03-20T11:51:36.558Z,13.73
2019-03-20T11:54:06.108Z,13.60
2019-03-20T11:56:35.660Z,13.87
2019-03-20T11:59:05.203Z,16.30
2019-03-20T12:01:34.734Z,13.27
2019-03-20T12:04:04.310Z,13.13
2019-03-20T12:06:33.867Z,12.63
2019-03-20T12:09:04.210Z,12.60
2019-03-20T12:11:45.179Z,11.80
2019-03-20T12:14:04.938Z,11.70
2019-03-20T12:16:34.571Z,11.43
2019-03-20T12:19:04.116Z,11.43
2019-03-20T12:21:33.722Z,13.73
2019-03-20T12:24:03.297Z,14.27
2019-03-20T12:26:32.861Z,15.10
2019-03-20T12:29:02.425Z,12.10
2019-03-20T12:31:31.967Z,14.50
2019-03-20T12:34:02.345Z,10.40
2019-03-20T12:36:33.072Z,10.27
2019-03-20T12:39:03.037Z,10.53
2019-03-20T12:41:34.995Z,11.10
2019-03-20T12:44:04.546Z,10.70
2019-03-20T12:46:41.509Z,11.30
2019-03-20T12:49:05.274Z,13.03
2019-03-20T12:51:34.813Z,12.23
2019-03-20T12:54:04.381Z,11.27
2019-03-20T12:56:33.909Z,11.77
2019-03-20T12:59:03.475Z,11.87
2019-03-20T13:01:33.012Z,11.83
2019-03-20T13:04:02.583Z,12.47
2019-03-20T13:06:32.273Z,11.53
2019-03-20T13:09:03.640Z,12.90
2019-03-20T13:11:33.033Z,11.13
2019-03-20T13:14:02.600Z,11.77
2019-03-20T13:16:32.139Z,11.70
2019-03-20T13:19:01.688Z,11.23
2019-03-20T13:21:32.322Z,11.40
2019-03-20T13:24:01.876Z,11.60
2019-03-20T13:26:31.524Z,12.47
2019-03-20T13:29:02.069Z,11.77
2019-03-20T13:31:31.980Z,11.93
2019-03-20T13:34:01.528Z,11.37
2019-03-20T13:36:31.399Z,11.87
2019-03-20T13:39:00.949Z,11.23
2019-03-20T13:41:32.182Z,11.77
2019-03-20T13:44:02.091Z,11.40
2019-03-20T13:46:31.657Z,10.53
2019-03-20T13:49:01.236Z,17.43
2019-03-20T13:51:30.750Z,20.23
2019-03-20T13:54:00.318Z,12.37
2019-03-20T13:56:29.971Z,12.80
2019-03-20T13:59:18.906Z,12.73
2019-03-20T14:01:48.455Z,13.27
2019-03-20T14:04:18.025Z,12.73
2019-03-20T14:06:47.908Z,12.10
2019-03-20T14:09:17.566Z,11.50
2019-03-20T14:11:47.140Z,12.53
2019-03-20T14:14:16.770Z,12.20
2019-03-20T14:16:46.257Z,10.77
2019-03-20T14:19:15.904Z,13.37
2019-03-20T14:21:45.444Z,16.23
2019-03-20T14:24:15.074Z,17.00
2019-03-20T14:26:44.943Z,12.70
2019-03-20T14:29:14.870Z,20.03
2019-03-20T14:31:44.410Z,19.13
2019-03-20T14:34:13.946Z,17.43
2019-03-20T14:36:43.525Z,19.43
2019-03-20T14:39:13.098Z,42.43
2019-03-20T14:41:42.633Z,45.77
2019-03-20T14:44:13.214Z,29.63
2019-03-20T14:46:42.742Z,23.57
2019-03-20T14:49:12.306Z,20.77
2019-03-20T14:51:41.860Z,24.00
2019-03-20T14:54:11.436Z,21.17
2019-03-20T14:56:41.010Z,20.70
2019-03-20T14:59:10.920Z,20.97
2019-03-20T15:01:40.471Z,12.97
2019-03-20T15:04:09.998Z,12.17
2019-03-20T15:06:39.546Z,10.40
2019-03-20T15:09:10.871Z,11.20
2019-03-20T15:11:40.403Z,11.80
2019-03-20T15:14:09.966Z,12.80
2019-03-20T15:16:39.441Z,12.30
2019-03-20T15:19:08.998Z,11.67
2019-03-20T15:21:38.630Z,11.33
2019-03-20T15:24:08.163Z,12.17
2019-03-20T15:26:38.071Z,14.10
2019-03-20T15:29:08.741Z,15.30
2019-03-20T15:31:39.219Z,18.47
2019-03-20T15:34:08.760Z,16.17
2019-03-20T15:36:38.703Z,16.27
2019-03-20T15:39:08.285Z,18.03
2019-03-20T15:41:37.813Z,22.20
2019-03-20T15:44:07.374Z,13.70
2019-03-20T15:46:36.907Z,13.00
2019-03-20T15:49:06.585Z,15.83
2019-03-20T15:51:36.137Z,12.53
2019-03-20T15:54:06.675Z,59.37
2019-03-20T15:56:36.297Z,12.73
2019-03-20T15:59:06.147Z,10.60
2019-03-20T16:01:35.818Z,10.73
2019-03-20T16:04:06.043Z,11.03
2019-03-20T16:06:35.574Z,58.17
2019-03-20T16:09:07.545Z,21.27
2019-03-20T16:11:37.461Z,28.43
2019-03-20T16:14:07.113Z,34.30
2019-03-20T16:16:36.668Z,12.57
2019-03-20T16:19:06.209Z,18.63
2019-03-20T16:21:35.774Z,12.57
2019-03-20T16:24:06.253Z,27.30
2019-03-20T16:26:35.801Z,21.93
2019-03-20T16:29:05.369Z,18.60
2019-03-20T16:31:35.010Z,21.97
2019-03-20T16:34:04.649Z,29.63
2019-03-20T16:36:34.567Z,51.60
2019-03-20T16:39:07.154Z,53.10
2019-03-20T16:41:37.036Z,17.00
2019-03-20T16:44:06.574Z,18.97
2019-03-20T16:46:36.475Z,16.07
2019-03-20T16:49:06.009Z,15.37
2019-03-20T16:51:35.604Z,12.80
2019-03-20T16:54:05.365Z,12.27
2019-03-20T16:56:34.918Z,13.17
2019-03-20T16:59:04.480Z,12.93
2019-03-20T17:01:34.020Z,19.57
2019-03-20T17:04:03.871Z,30.23
2019-03-20T17:06:33.731Z,83.43
2019-03-20T17:09:03.597Z,71.60
2019-03-20T17:11:38.326Z,77.17
2019-03-20T17:14:04.700Z,41.13
2019-03-20T17:16:34.283Z,28.80
2019-03-20T17:19:03.821Z,26.13
2019-03-20T17:21:33.363Z,21.27
2019-03-20T17:24:02.921Z,19.27
2019-03-20T17:26:32.463Z,22.63
2019-03-20T17:29:08.876Z,43.40
2019-03-20T17:31:34.078Z,41.73
2019-03-20T17:34:03.651Z,88.57
2019-03-20T17:36:33.313Z,225.43
2019-03-20T17:39:03.244Z,432.17
2019-03-20T17:41:36.803Z,504.63
2019-03-20T17:44:05.127Z,575.53
2019-03-20T17:46:34.730Z,534.50
2019-03-20T17:49:04.674Z,337.13
2019-03-20T17:51:36.046Z,108.70
2019-03-20T17:54:05.992Z,63.53
2019-03-20T17:56:35.908Z,55.67
2019-03-20T17:59:05.461Z,72.50
2019-03-20T18:01:35.019Z,36.57
2019-03-20T18:04:04.567Z,30.57
2019-03-20T18:06:47.117Z,30.37
2019-03-20T18:09:17.542Z,26.37
2019-03-20T18:11:47.820Z,26.13
2019-03-20T18:14:18.866Z,36.23
2019-03-20T18:16:48.855Z,23.87
2019-03-20T18:19:18.414Z,24.57
2019-03-20T18:21:47.976Z,27.97
2019-03-20T18:24:17.775Z,41.27
2019-03-20T18:26:47.578Z,43.50
2019-03-20T18:29:17.515Z,41.23
2019-03-20T18:31:47.993Z,26.43
2019-03-20T18:34:17.550Z,20.57
2019-03-20T18:36:47.093Z,19.83
2019-03-20T18:39:16.723Z,20.10
2019-03-20T18:41:46.261Z,19.20
2019-03-20T18:44:16.814Z,20.23
2019-03-20T18:46:46.706Z,19.50
2019-03-20T18:49:16.623Z,21.63
2019-03-20T18:51:46.203Z,22.83
2019-03-20T18:54:15.848Z,23.63
2019-03-20T18:56:45.736Z,43.73
2019-03-20T18:59:15.319Z,57.70
2019-03-20T19:01:44.859Z,140.47
2019-03-20T19:04:16.925Z,218.77
2019-03-20T19:06:47.945Z,157.00
2019-03-20T19:09:18.868Z,109.83
2019-03-20T19:15:49.867Z,41.00
2019-03-20T19:21:42.345Z,31.47
2019-03-20T19:24:21.871Z,42.30
2019-03-20T19:26:55.484Z,53.30
2019-03-20T19:29:34.443Z,84.37
2019-03-20T19:32:10.868Z,52.07
2019-03-20T19:34:47.871Z,49.03
2019-03-20T19:37:28.890Z,36.30
2019-03-20T19:40:13.867Z,34.80
2019-03-20T19:42:49.879Z,34.87
2019-03-20T19:45:20.017Z,38.33
2019-03-20T19:47:56.357Z,35.43
2019-03-20T19:50:37.869Z,32.30
2019-03-20T19:53:13.579Z,34.83
2019-03-20T19:55:49.332Z,34.97
2019-03-20T19:58:25.093Z,38.13
2019-03-20T20:00:58.783Z,33.43
2019-03-20T20:03:29.836Z,30.20
2019-03-20T20:06:00.764Z,30.13
2019-03-20T20:08:34.569Z,37.77
2019-03-20T20:11:08.786Z,32.13
2019-03-20T20:13:45.150Z,33.73
2019-03-20T20:16:24.870Z,31.33
2019-03-20T20:19:06.872Z,32.27
2019-03-20T20:21:39.715Z,31.30
2019-03-20T20:24:13.069Z,28.63
2019-03-20T20:26:45.134Z,32.77
2019-03-20T20:29:19.349Z,28.07
2019-03-20T20:31:55.870Z,26.40
2019-03-20T20:34:49.386Z,27.80
2019-03-20T20:37:21.861Z,27.53
2019-03-20T20:39:58.870Z,26.60
2019-03-20T20:42:42.826Z,27.77
2019-03-20T20:45:17.313Z,27.67
2019-03-20T20:47:55.870Z,28.13
2019-03-20T20:50:33.324Z,29.00
2019-03-20T20:53:12.344Z,28.80
2019-03-20T20:55:46.765Z,31.53
2019-03-20T20:58:22.872Z,31.47
2019-03-20T21:00:57.878Z,33.17
2019-03-20T21:03:29.871Z,36.97
2019-03-20T21:06:07.873Z,35.93
2019-03-20T21:08:44.871Z,36.30
2019-03-20T21:11:16.252Z,36.27
2019-03-20T21:13:46.371Z,37.07
2019-03-20T21:16:16.799Z,38.63
2019-03-20T21:18:55.872Z,39.03
2019-03-20T21:21:31.372Z,40.37
2019-03-20T21:24:30.871Z,41.90
2019-03-20T21:27:07.877Z,45.97
2019-03-20T21:30:05.870Z,44.93
2019-03-20T21:32:54.282Z,45.80
2019-03-20T21:35:53.593Z,48.40
2019-03-20T21:38:29.874Z,48.60
2019-03-20T21:41:30.878Z,49.03
2019-03-20T21:44:34.883Z,50.77
2019-03-20T21:47:29.872Z,51.97
2019-03-20T21:50:21.871Z,52.70
2019-03-20T21:52:58.872Z,52.47
2019-03-20T21:55:53.871Z,52.10
2019-03-20T21:58:32.338Z,56.07
2019-03-20T22:01:14.744Z,53.57
2019-03-20T22:03:44.873Z,54.67
2019-03-20T22:06:50.310Z,56.83
2019-03-20T22:09:28.909Z,55.97
2019-03-20T22:12:24.348Z,55.87
2019-03-20T22:15:16.169Z,54.60
2019-03-20T22:18:12.398Z,54.90
2019-03-20T22:20:51.122Z,57.50
2019-03-20T22:23:50.218Z,51.13
2019-03-20T22:26:26.993Z,51.13
2019-03-20T22:29:17.081Z,51.67
2019-03-20T22:31:58.873Z,51.93
2019-03-20T22:34:38.105Z,48.53
2019-03-20T22:37:15.877Z,47.13
2019-03-20T22:40:16.880Z,50.97
2019-03-20T22:43:10.878Z,54.03
2019-03-20T22:46:15.875Z,56.00
2019-03-20T22:48:55.097Z,57.53
2019-03-20T22:52:03.513Z,56.60
2019-03-20T22:55:04.880Z,59.90
2019-03-20T22:57:45.429Z,61.13
2019-03-20T23:00:18.419Z,62.07
2019-03-20T23:03:09.873Z,64.33
2019-03-20T23:05:48.874Z,59.93
2019-03-20T23:08:30.348Z,62.23
2019-03-20T23:11:11.880Z,65.07
2019-03-20T23:13:50.354Z,63.83
2019-03-20T23:16:31.878Z,63.07
2019-03-20T23:19:09.530Z,61.27
2019-03-20T23:21:47.878Z,63.43
2019-03-20T23:24:25.334Z,64.63
2019-03-20T23:27:05.873Z,63.37
2019-03-20T23:29:45.877Z,64.17
2019-03-20T23:32:23.343Z,63.40
2019-03-20T23:35:07.875Z,62.80
2019-03-20T23:37:58.601Z,63.23
2019-03-20T23:40:29.878Z,60.50
2019-03-20T23:43:16.349Z,60.63
2019-03-20T23:45:50.360Z,61.57
2019-03-20T23:48:43.874Z,60.93
2019-03-20T23:51:22.343Z,60.73
2019-03-20T23:57:02.882Z,60.53
2019-03-20T23:59:44.307Z,62.10
